createdAt,value
2023-03-03T00:00:44.199Z,74.33
2023-03-03T00:03:15.517Z,76.34
2023-03-03T00:05:42.610Z,78.90
2023-03-03T00:08:10.537Z,79.00
2023-03-03T00:10:37.693Z,80.33
2023-03-03T00:13:04.461Z,77.10
2023-03-03T00:15:31.511Z,75.28
2023-03-03T00:17:59.373Z,75.69
2023-03-03T00:20:39.961Z,74.98
2023-03-03T00:23:35.132Z,74.75
2023-03-03T00:26:02.700Z,77.81
2023-03-03T00:28:49.712Z,76.98
2023-03-03T00:31:29.374Z,75.71
2023-03-03T00:34:17.056Z,74.04
2023-03-03T00:36:44.118Z,76.40
2023-03-03T00:39:28.688Z,76.25
2023-03-03T00:41:55.414Z,74.91
2023-03-03T00:44:45.133Z,76.34
2023-03-03T00:47:23.210Z,76.93
2023-03-03T00:49:49.652Z,80.83
2023-03-03T00:52:20.589Z,81.49
2023-03-03T00:54:47.448Z,79.98
2023-03-03T00:57:13.867Z,78.79
2023-03-03T00:59:40.924Z,82.27
2023-03-03T01:02:07.344Z,79.78
2023-03-03T01:04:33.794Z,76.58
2023-03-03T01:07:00.207Z,76.95
2023-03-03T01:09:26.618Z,79.28
2023-03-03T01:11:53.158Z,80.01
2023-03-03T01:14:19.743Z,78.12
2023-03-03T01:16:46.242Z,78.37
2023-03-03T01:19:12.747Z,79.21
2023-03-03T01:21:40.041Z,76.33
2023-03-03T01:24:06.462Z,79.67
2023-03-03T01:26:32.920Z,79.97
2023-03-03T01:28:59.323Z,78.26
2023-03-03T01:31:26.271Z,80.65
2023-03-03T01:33:52.774Z,75.76
2023-03-03T01:36:26.549Z,75.98
2023-03-03T01:38:52.971Z,76.86
2023-03-03T01:41:20.159Z,77.84
2023-03-03T01:43:48.962Z,74.51
2023-03-03T01:46:24.267Z,79.21
2023-03-03T01:49:02.867Z,77.33
2023-03-03T01:51:37.332Z,81.10
2023-03-03T01:54:10.557Z,80.95
2023-03-03T01:56:37.300Z,81.60
2023-03-03T01:59:06.973Z,79.80
2023-03-03T02:01:34.422Z,79.68
2023-03-03T02:04:01.002Z,77.35
2023-03-03T02:06:35.240Z,78.68
2023-03-03T02:09:20.135Z,76.51
2023-03-03T02:11:48.950Z,76.42
2023-03-03T02:14:15.415Z,77.85
2023-03-03T02:16:42.451Z,75.82
2023-03-03T02:19:18.058Z,76.58
2023-03-03T02:21:44.517Z,79.12
2023-03-03T02:24:33.365Z,76.24
2023-03-03T02:27:00.107Z,74.83
2023-03-03T02:29:26.552Z,74.51
2023-03-03T02:31:53.030Z,77.06
2023-03-03T02:34:19.550Z,76.52
2023-03-03T02:36:46.112Z,76.23
2023-03-03T02:39:20.620Z,76.01
2023-03-03T02:42:09.895Z,74.91
2023-03-03T02:44:36.432Z,77.97
2023-03-03T02:47:02.851Z,78.85
2023-03-03T02:49:34.734Z,79.60
2023-03-03T02:52:04.092Z,76.17
2023-03-03T02:54:30.954Z,79.34
2023-03-03T02:56:58.552Z,78.07
2023-03-03T02:59:25.087Z,74.68
2023-03-03T03:01:52.062Z,73.44
2023-03-03T03:04:24.872Z,72.98
2023-03-03T03:06:52.850Z,74.07
2023-03-03T03:09:21.922Z,75.86
2023-03-03T03:11:48.409Z,77.03
2023-03-03T03:14:15.153Z,74.27
2023-03-03T03:16:41.669Z,74.75
2023-03-03T03:19:08.678Z,74.50
2023-03-03T03:21:35.373Z,77.34
2023-03-03T03:24:01.941Z,75.28
2023-03-03T03:26:28.437Z,78.05
2023-03-03T03:28:54.950Z,74.88
2023-03-03T03:31:22.031Z,74.11
2023-03-03T03:33:49.154Z,75.24
2023-03-03T03:36:15.802Z,74.72
2023-03-03T03:38:42.268Z,73.38
2023-03-03T03:41:08.811Z,74.75
2023-03-03T03:43:35.415Z,74.12
2023-03-03T03:46:02.065Z,75.97
2023-03-03T03:48:28.921Z,76.12
2023-03-03T03:50:55.408Z,76.00
2023-03-03T03:53:21.870Z,75.95
2023-03-03T03:55:48.342Z,74.30
2023-03-03T03:58:17.151Z,72.97
2023-03-03T04:00:44.874Z,72.13
2023-03-03T04:03:12.168Z,74.57
2023-03-03T04:05:38.792Z,72.22
2023-03-03T04:08:05.445Z,72.12
2023-03-03T04:10:31.998Z,72.04
2023-03-03T04:12:58.504Z,74.83
2023-03-03T04:15:24.934Z,72.80
2023-03-03T04:17:51.474Z,73.52
2023-03-03T04:20:18.026Z,72.09
2023-03-03T04:22:44.532Z,72.52
2023-03-03T04:25:15.357Z,71.28
2023-03-03T04:27:43.200Z,72.22
2023-03-03T04:30:10.351Z,76.75
2023-03-03T04:32:36.785Z,74.10
2023-03-03T04:35:08.186Z,76.21
2023-03-03T04:37:36.403Z,75.19
2023-03-03T04:40:04.996Z,75.72
2023-03-03T04:42:31.477Z,75.21
2023-03-03T04:44:57.987Z,73.46
2023-03-03T04:47:24.447Z,78.49
2023-03-03T04:49:50.850Z,75.57
2023-03-03T04:52:17.270Z,72.90
2023-03-03T04:54:43.743Z,73.07
2023-03-03T04:57:10.234Z,71.67
2023-03-03T04:59:36.965Z,72.36
2023-03-03T05:02:05.318Z,76.15
2023-03-03T05:04:31.999Z,78.12
2023-03-03T05:06:58.517Z,73.20
2023-03-03T05:09:24.998Z,73.30
2023-03-03T05:11:51.716Z,73.23
2023-03-03T05:14:18.453Z,74.78
2023-03-03T05:16:45.113Z,72.59
2023-03-03T05:19:12.816Z,72.73
2023-03-03T05:21:42.391Z,72.49
2023-03-03T05:24:10.427Z,71.40
2023-03-03T05:26:36.949Z,70.10
2023-03-03T05:29:03.834Z,70.29
2023-03-03T05:31:30.405Z,70.23
2023-03-03T05:33:56.833Z,72.23
2023-03-03T05:36:23.381Z,69.90
2023-03-03T05:38:49.838Z,71.51
2023-03-03T05:41:16.544Z,72.27
2023-03-03T05:43:43.196Z,71.09
2023-03-03T05:46:10.400Z,72.86
2023-03-03T05:48:36.873Z,70.92
2023-03-03T05:51:03.365Z,70.42
2023-03-03T05:53:30.247Z,70.06
2023-03-03T05:55:57.394Z,71.09
2023-03-03T05:58:24.123Z,70.37
2023-03-03T06:00:50.595Z,69.79
2023-03-03T06:03:17.169Z,70.38
2023-03-03T06:05:43.801Z,70.03
2023-03-03T06:08:10.257Z,69.86
2023-03-03T06:10:36.801Z,72.37
2023-03-03T06:13:03.349Z,72.05
2023-03-03T06:15:30.019Z,71.67
2023-03-03T06:17:56.450Z,71.85
2023-03-03T06:20:22.972Z,71.70
2023-03-03T06:22:49.419Z,72.41
2023-03-03T06:25:15.978Z,71.12
2023-03-03T06:27:42.425Z,71.40
2023-03-03T06:30:09.474Z,69.95
2023-03-03T06:32:35.945Z,73.12
2023-03-03T06:35:02.425Z,75.04
2023-03-03T06:37:28.870Z,76.06
2023-03-03T06:39:56.403Z,75.12
2023-03-03T06:42:24.869Z,74.69
2023-03-03T06:44:51.366Z,72.86
2023-03-03T06:47:17.797Z,73.36
2023-03-03T06:49:44.204Z,72.09
2023-03-03T06:52:19.068Z,72.57
2023-03-03T06:54:45.462Z,72.85
2023-03-03T06:57:28.286Z,71.87
2023-03-03T06:59:58.314Z,73.17
2023-03-03T07:02:24.901Z,75.24
2023-03-03T07:04:55.975Z,74.97
2023-03-03T07:07:24.742Z,73.78
2023-03-03T07:09:56.694Z,73.04
2023-03-03T07:12:41.318Z,71.45
2023-03-03T07:15:22.975Z,72.68
2023-03-03T07:17:52.540Z,74.75
2023-03-03T07:20:25.157Z,72.42
2023-03-03T07:22:52.033Z,74.21
2023-03-03T07:25:34.294Z,71.34
2023-03-03T07:28:25.227Z,73.94
2023-03-03T07:30:53.395Z,75.41
2023-03-03T07:33:44.044Z,74.56
2023-03-03T07:36:27.702Z,74.28
2023-03-03T07:38:57.592Z,73.02
2023-03-03T07:41:24.602Z,73.52
2023-03-03T07:44:31.360Z,72.64
2023-03-03T07:46:57.808Z,75.04
2023-03-03T07:49:31.019Z,76.96
2023-03-03T07:52:00.188Z,76.92
2023-03-03T07:54:29.566Z,77.11
2023-03-03T07:57:02.121Z,76.43
2023-03-03T07:59:28.506Z,76.21
2023-03-03T08:01:58.212Z,74.24
2023-03-03T08:04:54.785Z,72.28
2023-03-03T08:07:23.144Z,74.78
2023-03-03T08:09:52.124Z,75.42
2023-03-03T08:13:00.703Z,73.41
2023-03-03T08:15:36.609Z,74.46
2023-03-03T08:18:21.404Z,72.02
2023-03-03T08:20:52.432Z,72.40
2023-03-03T08:23:20.152Z,70.97
2023-03-03T08:25:52.322Z,74.62
2023-03-03T08:28:20.420Z,70.70
2023-03-03T08:30:47.335Z,72.79
2023-03-03T08:33:14.921Z,72.76
2023-03-03T08:35:42.071Z,74.14
2023-03-03T08:38:09.350Z,72.57
2023-03-03T08:40:36.242Z,71.07
2023-03-03T08:43:03.603Z,70.12
2023-03-03T08:45:30.262Z,73.62
2023-03-03T08:47:56.925Z,71.47
2023-03-03T08:50:23.462Z,70.16
2023-03-03T08:52:50.150Z,69.53
2023-03-03T08:55:16.644Z,70.62
2023-03-03T08:57:43.393Z,73.20
2023-03-03T09:00:13.281Z,72.86
2023-03-03T09:02:39.894Z,75.56
2023-03-03T09:05:06.877Z,73.12
2023-03-03T09:07:33.486Z,70.68
2023-03-03T09:09:59.897Z,70.41
2023-03-03T09:12:50.720Z,73.89
2023-03-03T09:15:17.091Z,73.65
2023-03-03T09:17:44.390Z,73.35
2023-03-03T09:20:31.494Z,74.26
2023-03-03T09:22:58.749Z,71.09
2023-03-03T09:25:33.391Z,69.96
2023-03-03T09:28:02.112Z,72.86
2023-03-03T09:30:45.948Z,70.90
2023-03-03T09:33:40.295Z,72.45
2023-03-03T09:36:25.014Z,74.51
2023-03-03T09:38:51.665Z,72.70
2023-03-03T09:41:54.072Z,73.95
2023-03-03T09:44:42.737Z,73.30
2023-03-03T09:47:24.411Z,75.51
2023-03-03T09:50:13.042Z,77.07
2023-03-03T09:52:54.717Z,76.72
2023-03-03T09:55:37.376Z,73.23
2023-03-03T09:58:31.846Z,74.48
2023-03-03T10:01:10.476Z,74.45
2023-03-03T10:03:52.724Z,73.90
2023-03-03T10:06:31.704Z,74.43
2023-03-03T10:09:10.358Z,73.10
2023-03-03T10:12:28.357Z,71.82
2023-03-03T10:15:22.000Z,71.84
2023-03-03T10:17:52.269Z,72.37
2023-03-03T10:20:49.440Z,71.89
2023-03-03T10:23:23.310Z,70.17
2023-03-03T10:25:57.259Z,68.33
2023-03-03T10:29:04.426Z,68.84
2023-03-03T10:31:36.774Z,71.85
2023-03-03T10:34:22.008Z,73.32
2023-03-03T10:37:19.078Z,70.50
2023-03-03T10:40:00.148Z,69.03
2023-03-03T10:42:42.905Z,70.84
2023-03-03T10:45:45.792Z,71.08
2023-03-03T10:48:18.291Z,73.15
2023-03-03T10:51:02.271Z,69.33
2023-03-03T10:57:22.934Z,72.37
2023-03-03T10:59:52.072Z,68.88
2023-03-03T11:02:32.763Z,67.39
2023-03-03T11:05:02.252Z,69.85
2023-03-03T11:07:38.593Z,70.91
2023-03-03T11:10:37.097Z,73.15
2023-03-03T11:13:10.066Z,72.82
2023-03-03T11:16:15.950Z,71.47
2023-03-03T11:18:45.192Z,67.62
2023-03-03T11:21:53.456Z,71.58
2023-03-03T11:24:53.107Z,70.34
2023-03-03T11:27:44.689Z,71.69
2023-03-03T11:30:26.297Z,71.19
2023-03-03T11:33:04.678Z,70.51
2023-03-03T11:36:11.951Z,68.02
2023-03-03T11:38:50.535Z,70.33
2023-03-03T11:41:56.114Z,69.78
2023-03-03T11:44:27.321Z,69.99
2023-03-03T11:47:00.583Z,70.48
2023-03-03T11:49:51.600Z,69.23
2023-03-03T11:52:36.824Z,68.16
2023-03-03T11:55:15.102Z,68.85
2023-03-03T11:58:12.713Z,67.02
2023-03-03T12:01:03.958Z,68.99
2023-03-03T12:03:38.752Z,66.57
2023-03-03T12:14:09.065Z,65.79
2023-03-03T12:16:42.395Z,65.93
2023-03-03T12:19:11.813Z,67.37
2023-03-03T12:21:58.810Z,68.50
2023-03-03T12:24:47.006Z,65.67
2023-03-03T12:27:34.672Z,68.10
2023-03-03T12:30:13.355Z,66.31
2023-03-03T12:32:52.101Z,65.95
2023-03-03T12:36:10.177Z,66.96
2023-03-03T12:39:02.313Z,64.97
2023-03-03T12:41:45.295Z,65.24
2023-03-03T12:44:22.971Z,64.26
2023-03-03T12:47:03.823Z,63.04
2023-03-03T12:50:08.885Z,60.39
2023-03-03T12:52:54.065Z,61.63
2023-03-03T12:55:24.303Z,61.87
2023-03-03T12:58:21.709Z,63.25
2023-03-03T13:00:57.333Z,64.17
2023-03-03T13:03:55.088Z,63.38
2023-03-03T13:06:39.990Z,63.64
2023-03-03T13:09:31.099Z,65.13
2023-03-03T13:12:23.836Z,66.63
2023-03-03T13:15:03.186Z,64.38
2023-03-03T13:17:37.195Z,66.97
2023-03-03T13:20:18.677Z,66.15
2023-03-03T13:23:02.108Z,63.72
2023-03-03T13:25:47.146Z,63.47
2023-03-03T13:28:23.425Z,65.58
2023-03-03T13:30:56.738Z,64.16
2023-03-03T13:33:28.806Z,66.08
2023-03-03T13:36:11.478Z,64.56
2023-03-03T13:38:46.857Z,62.03
2023-03-03T13:41:29.556Z,63.46
2023-03-03T13:44:16.714Z,61.90
2023-03-03T13:47:25.646Z,65.01
2023-03-03T13:50:09.358Z,63.61
2023-03-03T13:52:52.405Z,64.35
2023-03-03T13:55:32.929Z,62.38
2023-03-03T13:58:14.281Z,64.40
2023-03-03T14:00:48.253Z,63.36
2023-03-03T14:03:40.737Z,65.59
2023-03-03T14:06:23.172Z,65.87
2023-03-03T14:08:58.483Z,64.57
2023-03-03T14:11:43.553Z,65.63
2023-03-03T14:14:47.653Z,63.63
2023-03-03T14:17:26.809Z,62.64
2023-03-03T14:20:03.456Z,64.51
2023-03-03T14:23:04.844Z,64.70
2023-03-03T14:25:52.739Z,64.85
2023-03-03T14:28:22.152Z,66.14
2023-03-03T14:30:48.996Z,64.34
2023-03-03T14:33:20.557Z,64.18
2023-03-03T14:35:56.276Z,66.04
2023-03-03T14:38:44.706Z,64.22
2023-03-03T14:41:11.060Z,64.97
2023-03-03T14:43:39.722Z,66.18
2023-03-03T14:46:40.419Z,65.19
2023-03-03T14:49:30.595Z,66.29
2023-03-03T14:52:22.018Z,66.93
2023-03-03T14:55:00.756Z,65.19
2023-03-03T14:57:48.558Z,65.40
2023-03-03T15:00:16.284Z,65.53
2023-03-03T15:02:46.760Z,64.29
2023-03-03T15:05:30.414Z,66.57
2023-03-03T15:08:05.984Z,64.42
2023-03-03T15:10:35.050Z,63.44
2023-03-03T15:13:30.561Z,65.81
2023-03-03T15:15:59.842Z,68.75
2023-03-03T15:18:35.045Z,68.49
2023-03-03T15:21:15.265Z,68.23
2023-03-03T15:23:51.596Z,66.89
2023-03-03T15:26:46.196Z,67.20
2023-03-03T15:29:37.050Z,69.79
2023-03-03T15:32:31.071Z,67.01
2023-03-03T15:35:13.697Z,69.30
2023-03-03T15:37:52.656Z,66.45
2023-03-03T15:40:26.092Z,68.26
2023-03-03T15:43:11.463Z,68.29
2023-03-03T15:46:00.365Z,68.56
2023-03-03T15:48:53.041Z,64.18
2023-03-03T15:51:37.947Z,66.01
2023-03-03T15:54:10.411Z,65.50
2023-03-03T15:56:58.463Z,68.51
2023-03-03T15:59:53.035Z,64.67
2023-03-03T16:02:30.563Z,65.66
2023-03-03T16:05:03.402Z,68.02
2023-03-03T16:07:35.615Z,68.14
2023-03-03T16:10:40.498Z,67.83
2023-03-03T16:13:45.780Z,68.20
2023-03-03T16:16:43.287Z,70.46
2023-03-03T16:19:38.618Z,69.91
2023-03-03T16:22:24.553Z,70.24
2023-03-03T16:25:21.861Z,67.10
2023-03-03T16:28:09.403Z,70.77
2023-03-03T16:30:44.745Z,71.27
2023-03-03T16:33:29.915Z,68.25
2023-03-03T16:36:12.288Z,71.41
2023-03-03T16:38:42.181Z,68.12
2023-03-03T16:41:22.847Z,72.63
2023-03-03T16:44:16.000Z,70.94
2023-03-03T16:46:49.308Z,69.16
2023-03-03T16:49:15.654Z,69.04
2023-03-03T16:52:11.551Z,68.56
2023-03-03T16:55:07.693Z,71.46
2023-03-03T16:57:45.728Z,69.11
2023-03-03T17:00:19.253Z,69.84
2023-03-03T17:02:57.492Z,67.16
2023-03-03T17:05:29.956Z,68.06
2023-03-03T17:08:14.595Z,68.99
2023-03-03T17:11:11.499Z,67.20
2023-03-03T17:13:52.957Z,66.96
2023-03-03T17:16:19.322Z,70.14
2023-03-03T17:19:04.409Z,67.03
2023-03-03T17:21:57.698Z,66.85
2023-03-03T17:24:33.222Z,65.43
2023-03-03T17:27:11.766Z,65.42
2023-03-03T17:29:47.212Z,66.47
2023-03-03T17:32:33.039Z,65.86
2023-03-03T17:35:33.704Z,65.48
2023-03-03T17:38:12.214Z,66.95
2023-03-03T17:40:45.958Z,67.49
2023-03-03T17:43:21.668Z,66.91
2023-03-03T17:45:51.914Z,67.32
2023-03-03T17:48:44.062Z,67.45
2023-03-03T17:51:22.890Z,67.82
2023-03-03T17:54:07.636Z,67.26
2023-03-03T17:57:35.278Z,69.04
2023-03-03T18:00:19.209Z,67.05
2023-03-03T18:03:18.347Z,66.92
2023-03-03T18:05:53.730Z,65.32
2023-03-03T18:08:50.969Z,66.45
2023-03-03T18:11:34.136Z,65.29
2023-03-03T18:14:12.700Z,64.60
2023-03-03T18:16:51.216Z,64.68
2023-03-03T18:19:26.819Z,65.55
2023-03-03T18:22:07.430Z,64.72
2023-03-03T18:24:38.539Z,64.85
2023-03-03T18:27:23.694Z,65.25
2023-03-03T18:30:20.457Z,65.24
2023-03-03T18:32:49.925Z,69.20
2023-03-03T18:35:38.358Z,66.68
2023-03-03T18:38:16.786Z,66.61
2023-03-03T18:41:05.057Z,69.99
2023-03-03T18:43:43.643Z,68.11
2023-03-03T18:46:25.227Z,69.44
2023-03-03T18:49:09.951Z,69.71
2023-03-03T18:51:39.175Z,69.29
2023-03-03T18:54:19.919Z,70.31
2023-03-03T18:56:49.843Z,69.36
2023-03-03T18:59:31.602Z,69.32
2023-03-03T19:02:20.274Z,68.52
2023-03-03T19:04:55.664Z,69.20
2023-03-03T19:07:39.002Z,68.58
2023-03-03T19:10:21.375Z,69.93
2023-03-03T19:12:55.553Z,70.04
2023-03-03T19:15:31.210Z,71.19
2023-03-03T19:18:04.838Z,68.08
2023-03-03T19:20:43.450Z,68.60
2023-03-03T19:23:16.134Z,68.44
2023-03-03T19:25:42.968Z,70.64
2023-03-03T19:28:12.323Z,70.65
2023-03-03T19:30:44.895Z,71.98
2023-03-03T19:33:52.031Z,71.11
2023-03-03T19:36:38.109Z,70.32
2023-03-03T19:39:07.480Z,69.20
2023-03-03T19:41:40.069Z,71.57
2023-03-03T19:44:28.173Z,68.77
2023-03-03T19:47:06.120Z,69.86
2023-03-03T19:49:54.224Z,69.77
2023-03-03T19:52:42.196Z,68.91
2023-03-03T19:55:20.711Z,68.62
2023-03-03T19:57:54.059Z,69.76
2023-03-03T20:00:34.533Z,67.59
2023-03-03T20:03:28.748Z,67.74
2023-03-03T20:06:19.422Z,69.89
2023-03-03T20:09:13.812Z,70.94
2023-03-03T20:11:48.130Z,69.72
2023-03-03T20:14:35.737Z,70.98
2023-03-03T20:17:12.225Z,69.41
2023-03-03T20:19:56.084Z,66.20
2023-03-03T20:23:03.157Z,66.59
2023-03-03T20:25:42.313Z,66.15
2023-03-03T20:28:21.533Z,66.02
2023-03-03T20:30:56.424Z,69.74
2023-03-03T20:33:53.461Z,69.59
2023-03-03T20:36:35.771Z,68.72
2023-03-03T20:39:28.370Z,67.42
2023-03-03T20:41:58.771Z,69.38
2023-03-03T20:44:49.677Z,69.14
2023-03-03T20:47:25.202Z,69.80
2023-03-03T20:49:55.230Z,68.08
2023-03-03T20:52:33.834Z,68.26
2023-03-03T20:55:10.685Z,69.21
2023-03-03T20:57:57.814Z,66.94
2023-03-03T21:00:31.459Z,68.68
2023-03-03T21:03:09.874Z,66.35
2023-03-03T21:05:55.388Z,68.31
2023-03-03T21:08:40.399Z,68.33
2023-03-03T21:11:08.014Z,69.11
2023-03-03T21:13:40.307Z,67.30
2023-03-03T21:16:27.018Z,66.27
2023-03-03T21:19:01.108Z,67.65
2023-03-03T21:21:30.246Z,67.51
2023-03-03T21:23:59.001Z,67.18
2023-03-03T21:26:50.429Z,67.88
2023-03-03T21:29:27.572Z,68.19
2023-03-03T21:31:56.633Z,67.37
2023-03-03T21:34:28.943Z,67.61
2023-03-03T21:36:57.075Z,66.32
2023-03-03T21:39:29.312Z,66.81
2023-03-03T21:42:01.720Z,66.01
2023-03-03T21:44:40.449Z,64.43
2023-03-03T21:47:09.532Z,65.52
2023-03-03T21:49:39.847Z,65.76
2023-03-03T21:52:06.252Z,67.58
2023-03-03T21:54:32.674Z,66.20
2023-03-03T21:56:59.090Z,64.44
2023-03-03T21:59:25.570Z,65.31
2023-03-03T22:01:52.049Z,65.60
2023-03-03T22:04:19.600Z,67.64
2023-03-03T22:06:46.065Z,67.10
2023-03-03T22:09:12.692Z,66.05
2023-03-03T22:11:39.641Z,65.42
2023-03-03T22:14:07.188Z,65.57
2023-03-03T22:16:34.190Z,66.85
2023-03-03T22:19:02.746Z,66.31
2023-03-03T22:21:30.183Z,65.33
2023-03-03T22:23:56.755Z,65.98
2023-03-03T22:26:23.248Z,66.30
2023-03-03T22:28:50.114Z,66.57
2023-03-03T22:31:17.808Z,67.12
2023-03-03T22:33:44.528Z,66.72
2023-03-03T22:36:11.124Z,69.28
2023-03-03T22:38:39.828Z,66.01
2023-03-03T22:41:06.891Z,67.04
2023-03-03T22:43:33.576Z,66.83
2023-03-03T22:46:00.370Z,66.41
2023-03-03T22:48:30.459Z,64.67
2023-03-03T22:50:57.621Z,65.98
2023-03-03T22:53:24.874Z,67.47
2023-03-03T22:55:51.632Z,67.19
2023-03-03T22:58:25.292Z,66.10
2023-03-03T23:00:53.849Z,67.14
2023-03-03T23:03:20.986Z,67.34
2023-03-03T23:05:50.276Z,67.41
2023-03-03T23:08:20.156Z,67.50
2023-03-03T23:10:47.510Z,64.96
2023-03-03T23:13:14.014Z,68.35
2023-03-03T23:15:40.581Z,68.54
2023-03-03T23:18:07.153Z,69.19
2023-03-03T23:20:34.215Z,66.71
2023-03-03T23:23:00.669Z,64.73
2023-03-03T23:25:28.814Z,65.27
2023-03-03T23:27:55.892Z,65.65
2023-03-03T23:30:23.017Z,65.24
2023-03-03T23:32:50.228Z,68.06
2023-03-03T23:35:16.921Z,65.48
2023-03-03T23:37:43.487Z,65.03
2023-03-03T23:40:11.451Z,65.18
2023-03-03T23:42:37.970Z,66.37
2023-03-03T23:45:04.941Z,65.86
2023-03-03T23:47:31.422Z,67.33
2023-03-03T23:49:57.906Z,66.43
2023-03-03T23:52:24.376Z,65.61
2023-03-03T23:54:51.412Z,67.01
2023-03-03T23:57:17.823Z,68.49
2023-03-03T23:59:44.279Z,66.64
